createdAt,value
2022-10-06T00:00:36.414Z,83.34
2022-10-06T00:03:02.847Z,85.63
2022-10-06T00:05:29.260Z,86.32
2022-10-06T00:07:55.901Z,84.94
2022-10-06T00:10:22.381Z,85.71
2022-10-06T00:12:51.555Z,86.38
2022-10-06T00:15:21.471Z,86.42
2022-10-06T00:17:48.038Z,86.58
2022-10-06T00:20:14.493Z,86.71
2022-10-06T00:22:44.097Z,86.21
2022-10-06T00:25:12.554Z,85.14
2022-10-06T00:27:41.961Z,85.24
2022-10-06T00:30:12.016Z,85.44
2022-10-06T00:32:39.484Z,85.67
2022-10-06T00:35:07.572Z,85.94
2022-10-06T00:37:36.501Z,86.34
2022-10-06T00:40:09.705Z,87.24
2022-10-06T00:42:56.856Z,87.48
2022-10-06T00:45:40.281Z,87.52
2022-10-06T00:48:30.222Z,87.63
2022-10-06T00:50:58.527Z,87.63
2022-10-06T00:53:27.643Z,86.93
2022-10-06T00:55:54.396Z,86.37
2022-10-06T00:58:21.629Z,86.16
2022-10-06T01:00:53.985Z,85.93
2022-10-06T01:03:29.827Z,85.32
2022-10-06T01:05:58.360Z,84.80
2022-10-06T01:08:26.053Z,84.11
2022-10-06T01:10:52.723Z,84.37
2022-10-06T01:13:19.684Z,84.40
2022-10-06T01:16:03.093Z,84.10
2022-10-06T01:18:32.471Z,84.03
2022-10-06T01:21:20.901Z,84.26
2022-10-06T01:23:47.647Z,83.85
2022-10-06T01:26:15.863Z,83.65
2022-10-06T01:28:42.523Z,83.70
2022-10-06T01:31:09.532Z,83.43
2022-10-06T01:33:36.031Z,83.16
2022-10-06T01:36:02.480Z,83.23
2022-10-06T01:38:29.043Z,82.76
2022-10-06T01:40:55.736Z,83.07
2022-10-06T01:43:22.138Z,83.17
2022-10-06T01:45:56.786Z,82.15
2022-10-06T01:48:24.744Z,82.06
2022-10-06T01:50:51.213Z,82.22
2022-10-06T01:53:18.114Z,82.48
2022-10-06T01:55:45.329Z,82.52
2022-10-06T01:58:12.173Z,82.74
2022-10-06T02:00:38.958Z,82.64
2022-10-06T02:03:05.477Z,82.82
2022-10-06T02:05:32.484Z,82.97
2022-10-06T02:07:58.961Z,82.72
2022-10-06T02:10:25.439Z,83.02
2022-10-06T02:12:52.991Z,82.76
2022-10-06T02:15:20.746Z,82.85
2022-10-06T02:17:48.284Z,81.97
2022-10-06T02:20:15.121Z,80.71
2022-10-06T02:22:43.571Z,80.35
2022-10-06T02:25:12.362Z,79.64
2022-10-06T02:27:39.307Z,79.21
2022-10-06T02:30:07.626Z,78.44
2022-10-06T02:32:39.786Z,78.51
2022-10-06T02:35:06.989Z,78.90
2022-10-06T02:37:33.975Z,78.73
2022-10-06T02:40:00.678Z,79.14
2022-10-06T02:42:27.519Z,79.47
2022-10-06T02:44:55.574Z,79.75
2022-10-06T02:47:22.353Z,79.93
2022-10-06T02:49:48.764Z,80.06
2022-10-06T02:52:15.524Z,80.53
2022-10-06T02:54:42.367Z,81.26
2022-10-06T02:57:09.371Z,81.33
2022-10-06T02:59:36.413Z,81.61
2022-10-06T03:02:03.385Z,81.90
2022-10-06T03:04:30.237Z,82.14
2022-10-06T03:06:57.301Z,82.17
2022-10-06T03:09:23.800Z,82.29
2022-10-06T03:11:50.228Z,82.62
2022-10-06T03:14:21.649Z,82.44
2022-10-06T03:16:50.210Z,82.41
2022-10-06T03:19:16.920Z,81.82
2022-10-06T03:21:44.140Z,81.91
2022-10-06T03:24:11.212Z,81.49
2022-10-06T03:26:43.777Z,81.10
2022-10-06T03:29:11.872Z,80.72
2022-10-06T03:31:39.629Z,80.74
2022-10-06T03:34:08.292Z,80.58
2022-10-06T03:36:35.854Z,79.97
2022-10-06T03:39:04.092Z,80.00
2022-10-06T03:41:33.641Z,80.15
2022-10-06T03:44:00.599Z,79.56
2022-10-06T03:46:29.545Z,79.52
2022-10-06T03:49:01.370Z,79.67
2022-10-06T03:51:37.182Z,79.14
2022-10-06T03:54:04.026Z,78.79
2022-10-06T03:56:33.881Z,78.73
2022-10-06T03:59:08.535Z,78.72
2022-10-06T04:01:44.205Z,78.68
2022-10-06T04:04:12.183Z,79.04
2022-10-06T04:06:41.547Z,79.19
2022-10-06T04:09:15.027Z,79.04
2022-10-06T04:11:43.930Z,79.31
2022-10-06T04:14:13.834Z,78.97
2022-10-06T04:16:46.137Z,78.63
2022-10-06T04:19:14.507Z,78.50
2022-10-06T04:21:43.281Z,78.69
2022-10-06T04:24:11.251Z,78.55
2022-10-06T04:26:40.413Z,78.26
2022-10-06T04:29:06.867Z,78.50
2022-10-06T04:31:36.995Z,78.37
2022-10-06T04:34:05.165Z,77.86
2022-10-06T04:36:34.624Z,77.90
2022-10-06T04:39:03.180Z,78.25
2022-10-06T04:41:32.325Z,78.66
2022-10-06T04:43:59.635Z,78.29
2022-10-06T04:46:44.553Z,78.44
2022-10-06T04:49:17.947Z,78.49
2022-10-06T04:51:47.009Z,78.65
2022-10-06T04:54:13.377Z,78.78
2022-10-06T04:56:39.844Z,78.76
2022-10-06T04:59:06.264Z,78.93
2022-10-06T05:01:35.521Z,78.56
2022-10-06T05:04:03.734Z,78.72
2022-10-06T05:06:31.097Z,78.69
2022-10-06T05:09:00.497Z,78.30
2022-10-06T05:11:27.097Z,77.98
2022-10-06T05:13:55.343Z,78.24
2022-10-06T05:16:23.151Z,78.70
2022-10-06T05:18:49.905Z,78.48
2022-10-06T05:21:18.911Z,78.19
2022-10-06T05:23:46.045Z,78.39
2022-10-06T05:26:15.222Z,77.96
2022-10-06T05:28:42.328Z,78.17
2022-10-06T05:31:19.737Z,78.62
2022-10-06T05:33:48.013Z,78.34
2022-10-06T05:36:19.662Z,78.39
2022-10-06T05:38:47.272Z,78.48
2022-10-06T05:41:17.088Z,78.42
2022-10-06T05:43:45.171Z,78.18
2022-10-06T05:46:20.718Z,78.56
2022-10-06T05:48:49.103Z,78.60
2022-10-06T05:51:17.108Z,78.53
2022-10-06T05:53:43.916Z,78.52
2022-10-06T05:56:18.750Z,78.64
2022-10-06T05:58:50.676Z,78.87
2022-10-06T06:01:26.416Z,78.83
2022-10-06T06:03:54.958Z,78.71
2022-10-06T06:06:27.255Z,78.60
2022-10-06T06:09:04.552Z,78.13
2022-10-06T06:11:31.961Z,77.89
2022-10-06T06:14:00.384Z,78.01
2022-10-06T06:16:28.814Z,77.99
2022-10-06T06:18:55.282Z,77.62
2022-10-06T06:21:21.746Z,77.34
2022-10-06T06:23:49.124Z,77.67
2022-10-06T06:26:24.061Z,77.11
2022-10-06T06:28:52.404Z,76.79
2022-10-06T06:32:36.076Z,76.62
2022-10-06T06:35:02.506Z,76.82
2022-10-06T06:37:31.444Z,76.97
2022-10-06T06:39:58.433Z,76.76
2022-10-06T06:42:24.797Z,76.63
2022-10-06T06:44:51.163Z,76.68
2022-10-06T06:47:19.165Z,76.25
2022-10-06T06:49:47.985Z,76.06
2022-10-06T06:52:14.466Z,75.84
2022-10-06T06:54:40.862Z,75.62
2022-10-06T06:57:07.210Z,74.87
2022-10-06T06:59:34.030Z,74.47
2022-10-06T07:02:01.197Z,74.39
2022-10-06T07:04:27.600Z,73.63
2022-10-06T07:06:57.058Z,72.82
2022-10-06T07:09:25.906Z,72.86
2022-10-06T07:11:52.423Z,72.48
2022-10-06T07:14:18.846Z,72.94
2022-10-06T07:17:03.836Z,72.64
2022-10-06T07:19:48.748Z,71.36
2022-10-06T07:22:37.140Z,71.51
2022-10-06T07:25:14.876Z,70.86
2022-10-06T07:27:47.668Z,69.96
2022-10-06T07:30:20.262Z,69.45
2022-10-06T07:32:48.218Z,70.07
2022-10-06T07:35:14.966Z,69.62
2022-10-06T07:37:41.388Z,68.91
2022-10-06T07:40:09.888Z,66.64
2022-10-06T07:42:49.019Z,67.51
2022-10-06T07:45:44.597Z,68.38
2022-10-06T07:48:19.965Z,67.48
2022-10-06T07:50:49.111Z,66.73
2022-10-06T07:53:19.274Z,67.18
2022-10-06T07:55:47.793Z,66.87
2022-10-06T07:58:19.627Z,67.51
2022-10-06T08:00:48.337Z,68.09
2022-10-06T08:03:19.393Z,67.93
2022-10-06T08:05:50.277Z,68.24
2022-10-06T08:08:17.539Z,67.17
2022-10-06T08:10:52.388Z,66.78
2022-10-06T08:13:18.834Z,66.50
2022-10-06T08:15:45.415Z,65.54
2022-10-06T08:18:27.302Z,66.58
2022-10-06T08:20:58.389Z,66.08
2022-10-06T08:23:25.420Z,64.30
2022-10-06T08:25:53.704Z,64.01
2022-10-06T08:28:22.154Z,62.25
2022-10-06T08:30:51.374Z,65.24
2022-10-06T08:33:21.173Z,63.69
2022-10-06T08:35:50.263Z,62.14
2022-10-06T08:38:16.757Z,64.06
2022-10-06T08:40:44.692Z,64.89
2022-10-06T08:43:18.860Z,61.85
2022-10-06T08:45:47.293Z,61.80
2022-10-06T08:48:18.354Z,62.01
2022-10-06T08:51:18.640Z,60.75
2022-10-06T08:54:08.138Z,63.72
2022-10-06T08:56:54.788Z,62.57
2022-10-06T08:59:21.578Z,63.28
2022-10-06T09:01:51.278Z,64.15
2022-10-06T09:04:28.633Z,61.86
2022-10-06T09:07:06.592Z,59.77
2022-10-06T09:09:35.520Z,60.02
2022-10-06T09:12:20.807Z,58.05
2022-10-06T09:14:52.676Z,60.87
2022-10-06T09:17:27.013Z,60.28
2022-10-06T09:20:02.229Z,59.98
2022-10-06T09:22:32.287Z,58.94
2022-10-06T09:25:16.286Z,62.51
2022-10-06T09:27:45.814Z,62.30
2022-10-06T09:30:12.966Z,62.45
2022-10-06T09:32:46.918Z,61.27
2022-10-06T09:35:22.400Z,60.39
2022-10-06T09:38:08.258Z,60.46
2022-10-06T09:40:38.277Z,60.98
2022-10-06T09:43:17.700Z,58.29
2022-10-06T09:45:44.096Z,56.76
2022-10-06T09:48:13.519Z,58.31
2022-10-06T09:50:40.642Z,53.28
2022-10-06T09:53:16.262Z,54.96
2022-10-06T09:55:52.009Z,52.41
2022-10-06T09:58:22.156Z,55.21
2022-10-06T10:00:54.203Z,56.71
2022-10-06T10:03:22.210Z,52.96
2022-10-06T10:05:52.368Z,52.55
2022-10-06T10:08:27.280Z,50.94
2022-10-06T10:11:27.769Z,53.26
2022-10-06T10:13:57.670Z,51.02
2022-10-06T10:16:34.642Z,52.59
2022-10-06T10:19:05.541Z,52.14
2022-10-06T10:21:34.784Z,52.43
2022-10-06T10:24:06.186Z,54.06
2022-10-06T10:26:53.759Z,48.98
2022-10-06T10:29:49.733Z,49.47
2022-10-06T10:32:22.170Z,48.10
2022-10-06T10:35:13.772Z,47.46
2022-10-06T10:38:00.683Z,50.18
2022-10-06T10:40:33.109Z,47.76
2022-10-06T10:43:12.291Z,48.95
2022-10-06T10:45:46.891Z,48.91
2022-10-06T10:48:19.277Z,45.98
2022-10-06T10:51:01.654Z,45.39
2022-10-06T10:54:00.390Z,43.33
2022-10-06T10:56:27.202Z,41.69
2022-10-06T10:59:01.901Z,43.49
2022-10-06T11:01:45.266Z,42.19
2022-10-06T11:04:13.776Z,45.08
2022-10-06T11:06:54.399Z,45.65
2022-10-06T11:09:53.063Z,44.70
2022-10-06T11:12:41.189Z,44.76
2022-10-06T11:15:44.549Z,45.31
2022-10-06T11:18:24.484Z,43.68
2022-10-06T11:21:12.131Z,42.77
2022-10-06T11:23:50.900Z,41.33
2022-10-06T11:26:48.874Z,40.71
2022-10-06T11:29:25.416Z,41.45
2022-10-06T11:32:10.202Z,41.40
2022-10-06T11:34:36.754Z,40.58
2022-10-06T11:37:23.733Z,39.19
2022-10-06T11:40:05.182Z,38.06
2022-10-06T11:42:42.885Z,42.33
2022-10-06T11:45:16.147Z,41.11
2022-10-06T11:48:00.903Z,41.85
2022-10-06T11:50:35.195Z,42.95
2022-10-06T11:53:02.128Z,43.07
2022-10-06T11:55:29.072Z,42.36
2022-10-06T11:58:42.914Z,42.90
2022-10-06T12:00:59.002Z,42.82
2022-10-06T12:03:28.147Z,39.73
2022-10-06T12:05:56.624Z,37.50
2022-10-06T12:08:37.157Z,37.87
2022-10-06T12:11:23.955Z,43.37
2022-10-06T12:19:45.111Z,41.83
2022-10-06T12:22:17.266Z,40.82
2022-10-06T12:25:06.545Z,38.75
2022-10-06T12:27:55.530Z,40.77
2022-10-06T12:30:31.100Z,38.65
2022-10-06T12:32:59.228Z,40.30
2022-10-06T12:35:31.775Z,40.09
2022-10-06T12:38:06.658Z,39.48
2022-10-06T12:40:46.781Z,41.10
2022-10-06T12:43:18.978Z,41.46
2022-10-06T12:46:07.987Z,41.96
2022-10-06T12:48:52.394Z,42.12
2022-10-06T12:54:31.098Z,39.25
2022-10-06T12:56:59.038Z,37.70
2022-10-06T12:59:28.337Z,38.12
2022-10-06T13:01:58.624Z,43.35
2022-10-06T13:04:49.202Z,41.08
2022-10-06T13:07:21.843Z,39.19
2022-10-06T13:09:51.592Z,36.95
2022-10-06T13:12:36.486Z,37.68
2022-10-06T13:15:23.760Z,36.90
2022-10-06T13:18:14.304Z,37.62
2022-10-06T13:20:51.950Z,37.19
2022-10-06T13:23:37.101Z,37.41
2022-10-06T13:26:26.096Z,35.83
2022-10-06T13:28:54.644Z,36.86
2022-10-06T13:31:35.075Z,38.04
2022-10-06T13:34:12.549Z,38.47
2022-10-06T13:36:41.876Z,37.53
2022-10-06T13:39:21.917Z,37.19
2022-10-06T13:42:17.670Z,35.49
2022-10-06T13:44:56.568Z,34.74
2022-10-06T13:47:25.891Z,37.42
2022-10-06T13:50:01.947Z,36.41
2022-10-06T13:52:43.543Z,35.88
2022-10-06T13:55:24.586Z,37.39
2022-10-06T13:58:09.307Z,36.10
2022-10-06T14:01:00.529Z,35.72
2022-10-06T14:06:07.190Z,37.57
2022-10-06T14:08:34.431Z,39.16
2022-10-06T14:11:07.094Z,36.67
2022-10-06T14:13:53.000Z,37.46
2022-10-06T14:16:23.059Z,36.20
2022-10-06T14:21:36.824Z,35.32
2022-10-06T14:24:16.583Z,34.27
2022-10-06T14:26:45.137Z,36.41
2022-10-06T14:29:16.443Z,36.41
2022-10-06T14:31:43.967Z,37.37
2022-10-06T14:34:16.519Z,39.02
2022-10-06T14:36:46.145Z,37.74
2022-10-06T14:39:14.039Z,38.29
2022-10-06T14:41:40.974Z,38.83
2022-10-06T14:44:10.170Z,37.23
2022-10-06T14:46:38.086Z,35.88
2022-10-06T14:49:05.998Z,36.74
2022-10-06T14:51:36.544Z,38.02
2022-10-06T14:54:04.862Z,37.97
2022-10-06T14:56:33.481Z,36.20
2022-10-06T14:59:02.932Z,35.94
2022-10-06T15:01:30.193Z,36.49
2022-10-06T15:03:58.923Z,36.82
2022-10-06T15:06:44.504Z,36.03
2022-10-06T15:09:11.330Z,35.81
2022-10-06T15:11:38.010Z,36.63
2022-10-06T15:14:05.639Z,37.46
2022-10-06T15:16:36.946Z,37.32
2022-10-06T15:19:05.508Z,36.49
2022-10-06T15:21:33.094Z,37.62
2022-10-06T15:24:05.805Z,36.94
2022-10-06T15:26:51.592Z,37.97
2022-10-06T15:29:18.270Z,38.83
2022-10-06T15:31:51.302Z,39.51
2022-10-06T15:34:19.971Z,39.33
2022-10-06T15:36:46.815Z,39.83
2022-10-06T15:39:16.363Z,39.88
2022-10-06T15:41:43.670Z,40.79
2022-10-06T15:44:11.571Z,41.01
2022-10-06T15:46:40.735Z,40.41
2022-10-06T15:49:09.726Z,41.56
2022-10-06T15:51:49.102Z,41.32
2022-10-06T15:54:26.784Z,41.47
2022-10-06T15:57:00.524Z,41.28
2022-10-06T15:59:28.705Z,42.31
2022-10-06T16:01:58.101Z,41.81
2022-10-06T16:04:45.740Z,41.91
2022-10-06T16:07:17.322Z,42.07
2022-10-06T16:09:49.037Z,42.52
2022-10-06T16:12:18.360Z,43.15
2022-10-06T16:14:45.509Z,43.72
2022-10-06T16:17:13.003Z,43.55
2022-10-06T16:19:42.790Z,42.71
2022-10-06T16:22:13.405Z,42.86
2022-10-06T16:24:39.991Z,43.37
2022-10-06T16:27:09.285Z,43.83
2022-10-06T16:29:35.722Z,44.07
2022-10-06T16:32:02.253Z,43.88
2022-10-06T16:34:30.216Z,44.54
2022-10-06T16:36:57.045Z,45.13
2022-10-06T16:39:23.541Z,45.17
2022-10-06T16:41:50.584Z,45.77
2022-10-06T16:44:20.173Z,45.71
2022-10-06T16:46:46.800Z,46.21
2022-10-06T16:49:13.364Z,47.05
2022-10-06T16:51:45.692Z,47.32
2022-10-06T16:54:18.596Z,47.35
2022-10-06T16:56:47.325Z,48.17
2022-10-06T16:59:16.594Z,48.92
2022-10-06T17:01:44.102Z,48.80
2022-10-06T17:04:12.111Z,49.67
2022-10-06T17:06:41.615Z,49.77
2022-10-06T17:09:11.770Z,50.26
2022-10-06T17:11:38.535Z,50.52
2022-10-06T17:14:05.003Z,50.81
2022-10-06T17:16:34.674Z,51.55
2022-10-06T17:19:01.823Z,52.11
2022-10-06T17:24:17.981Z,53.44
2022-10-06T17:26:47.625Z,54.22
2022-10-06T17:29:21.320Z,54.33
2022-10-06T17:31:50.425Z,54.48
2022-10-06T17:34:21.510Z,55.69
2022-10-06T17:36:51.689Z,56.64
2022-10-06T17:39:22.936Z,56.88
2022-10-06T17:41:53.361Z,57.51
2022-10-06T17:44:22.803Z,58.66
2022-10-06T17:46:52.608Z,58.71
2022-10-06T17:49:20.816Z,59.24
2022-10-06T17:51:48.460Z,59.69
2022-10-06T17:57:49.406Z,60.24
2022-10-06T18:00:17.748Z,60.68
2022-10-06T18:02:44.724Z,61.02
2022-10-06T18:05:11.510Z,61.22
2022-10-06T18:07:39.890Z,61.64
2022-10-06T18:10:25.415Z,62.00
2022-10-06T18:12:52.140Z,62.32
2022-10-06T18:15:18.495Z,62.74
2022-10-06T18:17:45.156Z,62.80
2022-10-06T18:20:12.046Z,63.60
2022-10-06T18:22:38.614Z,63.33
2022-10-06T18:25:05.708Z,63.36
2022-10-06T18:27:33.266Z,63.12
2022-10-06T18:29:59.736Z,63.34
2022-10-06T18:34:58.793Z,64.41
2022-10-06T18:38:00.090Z,65.22
2022-10-06T18:40:26.548Z,65.01
2022-10-06T18:42:52.903Z,65.60
2022-10-06T18:45:39.594Z,66.13
2022-10-06T18:48:24.696Z,66.68
2022-10-06T18:51:01.481Z,66.97
2022-10-06T18:53:27.828Z,66.64
2022-10-06T18:55:54.214Z,67.16
2022-10-06T18:58:20.582Z,68.24
2022-10-06T19:00:48.067Z,67.86
2022-10-06T19:03:14.451Z,68.48
2022-10-06T19:05:50.971Z,69.00
2022-10-06T19:08:17.368Z,69.64
2022-10-06T19:11:03.689Z,69.95
2022-10-06T19:13:30.135Z,70.05
2022-10-06T19:15:57.588Z,70.32
2022-10-06T19:18:24.216Z,70.27
2022-10-06T19:20:51.133Z,70.71
2022-10-06T19:23:17.698Z,70.82
2022-10-06T19:25:44.200Z,71.08
2022-10-06T19:28:10.733Z,71.43
2022-10-06T19:30:37.262Z,72.07
2022-10-06T19:33:04.706Z,72.17
2022-10-06T19:35:31.143Z,72.25
2022-10-06T19:37:58.710Z,73.08
2022-10-06T19:40:25.078Z,73.18
2022-10-06T19:42:51.985Z,72.97
2022-10-06T19:45:20.503Z,73.35
2022-10-06T19:47:47.504Z,73.50
2022-10-06T19:50:16.149Z,73.74
2022-10-06T19:52:42.500Z,74.56
2022-10-06T19:55:09.168Z,74.87
2022-10-06T19:57:35.679Z,75.01
2022-10-06T20:00:02.692Z,74.84
2022-10-06T20:02:29.294Z,75.14
2022-10-06T20:04:56.295Z,75.09
2022-10-06T20:07:27.148Z,75.27
2022-10-06T20:09:53.649Z,75.63
2022-10-06T20:12:24.629Z,75.96
2022-10-06T20:14:53.271Z,75.91
2022-10-06T20:17:20.776Z,75.80
2022-10-06T20:19:47.297Z,75.80
2022-10-06T20:22:13.779Z,76.54
2022-10-06T20:24:40.180Z,76.23
2022-10-06T20:27:06.611Z,76.28
2022-10-06T20:29:34.560Z,76.82
2022-10-06T20:32:01.023Z,76.25
2022-10-06T20:34:32.537Z,77.09
2022-10-06T20:37:01.979Z,77.08
2022-10-06T20:39:48.819Z,77.18
2022-10-06T20:42:17.582Z,77.02
2022-10-06T20:44:44.237Z,76.80
2022-10-06T20:47:12.965Z,76.99
2022-10-06T20:49:40.319Z,77.32
2022-10-06T20:52:07.208Z,77.13
2022-10-06T20:54:37.069Z,77.47
2022-10-06T20:57:05.314Z,77.67
2022-10-06T20:59:33.078Z,77.62
2022-10-06T21:02:00.328Z,77.50
2022-10-06T21:04:27.771Z,78.23
2022-10-06T21:06:54.619Z,78.09
2022-10-06T21:09:21.338Z,78.58
2022-10-06T21:11:48.529Z,78.52
2022-10-06T21:14:15.994Z,80.18
2022-10-06T21:16:44.630Z,80.48
2022-10-06T21:19:14.652Z,80.99
2022-10-06T21:21:42.911Z,81.50
2022-10-06T21:24:09.847Z,82.31
2022-10-06T21:26:38.774Z,82.39
2022-10-06T21:29:06.001Z,82.03
2022-10-06T21:31:33.500Z,81.98
2022-10-06T21:34:01.573Z,82.01
2022-10-06T21:36:32.306Z,81.21
2022-10-06T21:39:01.453Z,81.25
2022-10-06T21:41:37.128Z,80.68
2022-10-06T21:44:05.295Z,81.07
2022-10-06T21:46:50.288Z,80.59
2022-10-06T21:49:19.199Z,81.15
2022-10-06T21:51:48.652Z,81.06
2022-10-06T21:54:15.790Z,81.17
2022-10-06T21:56:42.852Z,81.37
2022-10-06T21:59:10.405Z,81.32
2022-10-06T22:01:41.945Z,81.38
2022-10-06T22:04:08.963Z,81.38
2022-10-06T22:06:36.997Z,81.57
2022-10-06T22:09:06.372Z,81.58
2022-10-06T22:11:36.330Z,81.90
2022-10-06T22:14:04.989Z,81.86
2022-10-06T22:16:34.350Z,82.01
2022-10-06T22:19:03.745Z,81.97
2022-10-06T22:21:38.360Z,82.12
2022-10-06T22:24:13.968Z,82.47
2022-10-06T22:26:42.362Z,82.35
2022-10-06T22:29:11.615Z,82.55
2022-10-06T22:31:43.516Z,82.40
2022-10-06T22:34:12.244Z,82.52
2022-10-06T22:36:39.301Z,82.19
2022-10-06T22:39:06.202Z,82.34
2022-10-06T22:41:32.924Z,82.15
2022-10-06T22:44:00.185Z,82.30
2022-10-06T22:46:29.325Z,82.42
2022-10-06T22:48:56.782Z,82.70
2022-10-06T22:51:23.569Z,82.69
2022-10-06T22:53:59.047Z,82.82
2022-10-06T22:56:31.711Z,82.51
2022-10-06T22:59:00.065Z,82.47
2022-10-06T23:01:28.251Z,83.03
2022-10-06T23:03:55.759Z,83.00
2022-10-06T23:06:23.125Z,83.17
2022-10-06T23:08:49.923Z,83.28
2022-10-06T23:11:19.107Z,83.32
2022-10-06T23:13:46.224Z,83.36
2022-10-06T23:16:15.149Z,83.33
2022-10-06T23:18:43.617Z,83.67
2022-10-06T23:21:11.249Z,83.87
2022-10-06T23:23:37.862Z,84.05
2022-10-06T23:26:10.552Z,84.36
2022-10-06T23:28:37.771Z,84.69
2022-10-06T23:31:06.288Z,84.93
2022-10-06T23:33:33.912Z,85.24
2022-10-06T23:36:03.114Z,85.46
2022-10-06T23:38:29.735Z,85.62
2022-10-06T23:40:56.735Z,85.93
2022-10-06T23:43:24.034Z,85.92
2022-10-06T23:45:50.843Z,86.04
2022-10-06T23:48:18.083Z,86.47
2022-10-06T23:50:55.664Z,86.52
2022-10-06T23:53:22.337Z,86.54
2022-10-06T23:55:48.912Z,86.14
